createdAt,value
2023-08-17T00:00:34.055Z,101575.98
2023-08-17T00:03:35.192Z,101581.36
2023-08-17T00:06:21.940Z,101583.29
2023-08-17T00:09:09.246Z,101584.46
2023-08-17T00:11:56.047Z,101584.48
2023-08-17T00:14:42.758Z,101582.91
2023-08-17T00:17:29.650Z,101585.74
2023-08-17T00:20:17.425Z,101584.31
2023-08-17T00:23:05.106Z,101585.54
2023-08-17T00:25:52.127Z,101588.14
2023-08-17T00:28:39.118Z,101587.19
2023-08-17T00:31:26.376Z,101588.05
2023-08-17T00:34:13.292Z,101591.41
2023-08-17T00:37:00.167Z,101590.52
2023-08-17T00:39:46.887Z,101593.05
2023-08-17T00:42:33.955Z,101586.30
2023-08-17T00:45:20.970Z,101584.91
2023-08-17T00:48:10.022Z,101590.63
2023-08-17T00:50:57.314Z,101589.20
2023-08-17T00:53:44.559Z,101590.98
2023-08-17T00:56:31.479Z,101591.41
2023-08-17T00:59:18.215Z,101585.80
2023-08-17T01:02:08.559Z,101579.88
2023-08-17T01:04:56.248Z,101585.47
2023-08-17T01:07:44.630Z,101586.77
2023-08-17T01:10:53.988Z,101588.63
2023-08-17T01:14:03.767Z,101589.27
2023-08-17T01:17:20.021Z,101589.42
2023-08-17T01:20:11.080Z,101580.89
2023-08-17T01:23:06.254Z,101576.94
2023-08-17T01:25:54.909Z,101575.73
2023-08-17T01:28:41.855Z,101573.23
2023-08-17T01:31:45.958Z,101576.46
2023-08-17T01:34:38.678Z,101575.77
2023-08-17T01:37:29.750Z,101567.77
2023-08-17T01:40:18.073Z,101567.70
2023-08-17T01:43:05.016Z,101566.23
2023-08-17T01:45:51.919Z,101564.02
2023-08-17T01:48:40.129Z,101565.68
2023-08-17T01:51:27.810Z,101566.48
2023-08-17T01:54:15.100Z,101567.13
2023-08-17T01:57:02.249Z,101565.52
2023-08-17T01:59:49.189Z,101564.29
2023-08-17T02:02:37.089Z,101566.24
2023-08-17T02:05:23.737Z,101566.98
2023-08-17T02:08:10.839Z,101565.88
2023-08-17T02:10:57.566Z,101569.27
2023-08-17T02:13:44.317Z,101573.02
2023-08-17T02:16:31.152Z,101568.71
2023-08-17T02:19:18.344Z,101569.09
2023-08-17T02:22:05.033Z,101571.67
2023-08-17T02:24:52.075Z,101568.37
2023-08-17T02:27:38.875Z,101570.89
2023-08-17T02:30:25.692Z,101573.73
2023-08-17T02:33:13.024Z,101575.77
2023-08-17T02:36:00.177Z,101575.55
2023-08-17T02:38:46.667Z,101575.67
2023-08-17T02:41:33.587Z,101577.48
2023-08-17T02:44:20.454Z,101579.68
2023-08-17T02:47:09.731Z,101578.73
2023-08-17T02:49:56.692Z,101581.69
2023-08-17T02:52:43.955Z,101584.90
2023-08-17T02:55:30.843Z,101586.55
2023-08-17T02:58:17.775Z,101586.63
2023-08-17T03:01:05.534Z,101584.01
2023-08-17T03:03:52.370Z,101581.11
2023-08-17T03:06:39.512Z,101583.90
2023-08-17T03:09:26.621Z,101585.64
2023-08-17T03:12:13.646Z,101585.91
2023-08-17T03:15:01.037Z,101586.20
2023-08-17T03:17:49.406Z,101587.58
2023-08-17T03:20:36.470Z,101586.52
2023-08-17T03:23:23.511Z,101585.95
2023-08-17T03:26:11.649Z,101587.93
2023-08-17T03:28:58.640Z,101584.59
2023-08-17T03:31:45.555Z,101582.45
2023-08-17T03:34:32.813Z,101582.49
2023-08-17T03:37:21.798Z,101585.57
2023-08-17T03:40:09.675Z,101580.95
2023-08-17T03:42:56.676Z,101583.04
2023-08-17T03:45:44.262Z,101579.20
2023-08-17T03:48:31.491Z,101579.98
2023-08-17T03:51:18.562Z,101576.63
2023-08-17T03:54:05.824Z,101578.02
2023-08-17T03:56:52.396Z,101574.98
2023-08-17T03:59:39.740Z,101578.38
2023-08-17T04:02:26.798Z,101580.48
2023-08-17T04:05:14.331Z,101579.69
2023-08-17T04:08:05.028Z,101577.15
2023-08-17T04:10:51.710Z,101579.27
2023-08-17T04:13:38.826Z,101581.55
2023-08-17T04:16:25.947Z,101584.91
2023-08-17T04:19:12.851Z,101584.45
2023-08-17T04:21:59.796Z,101587.11
2023-08-17T04:24:46.588Z,101592.06
2023-08-17T04:27:33.885Z,101591.70
2023-08-17T04:30:21.078Z,101593.19
2023-08-17T04:33:16.030Z,101591.26
2023-08-17T04:36:06.440Z,101594.44
2023-08-17T04:38:53.338Z,101596.23
2023-08-17T04:41:40.491Z,101601.24
2023-08-17T04:44:28.171Z,101601.66
2023-08-17T04:47:16.167Z,101598.33
2023-08-17T04:50:04.170Z,101600.59
2023-08-17T04:52:51.218Z,101601.79
2023-08-17T04:55:38.955Z,101603.70
2023-08-17T04:58:26.001Z,101602.16
2023-08-17T05:01:12.797Z,101605.77
2023-08-17T05:04:00.258Z,101606.02
2023-08-17T05:06:47.793Z,101602.39
2023-08-17T05:09:35.028Z,101602.80
2023-08-17T05:12:22.325Z,101603.20
2023-08-17T05:15:11.535Z,101600.77
2023-08-17T05:18:00.100Z,101604.86
2023-08-17T05:20:47.524Z,101606.35
2023-08-17T05:23:34.746Z,101605.98
2023-08-17T05:26:21.853Z,101609.70
2023-08-17T05:29:12.886Z,101610.13
2023-08-17T05:32:01.425Z,101608.39
2023-08-17T05:34:49.071Z,101607.20
2023-08-17T05:37:36.181Z,101607.47
2023-08-17T05:40:22.900Z,101609.53
2023-08-17T05:43:09.727Z,101609.17
2023-08-17T05:46:02.210Z,101614.26
2023-08-17T05:48:49.784Z,101616.86
2023-08-17T05:51:36.783Z,101618.11
2023-08-17T05:54:23.626Z,101618.07
2023-08-17T05:57:11.994Z,101616.00
2023-08-17T06:08:21.746Z,101617.55
2023-08-17T06:11:29.380Z,101618.40
2023-08-17T06:14:16.255Z,101618.36
2023-08-17T06:17:03.376Z,101620.15
2023-08-17T06:19:53.833Z,101619.98
2023-08-17T06:22:40.474Z,101620.67
2023-08-17T06:25:27.155Z,101619.15
2023-08-17T06:28:14.299Z,101620.71
2023-08-17T06:31:01.045Z,101621.98
2023-08-17T06:33:47.882Z,101620.80
2023-08-17T06:36:35.482Z,101622.44
2023-08-17T06:39:22.630Z,101629.42
2023-08-17T06:42:09.294Z,101630.13
2023-08-17T06:44:56.540Z,101633.88
2023-08-17T06:47:47.169Z,101634.83
2023-08-17T06:50:34.092Z,101636.75
2023-08-17T06:53:21.129Z,101633.49
2023-08-17T06:56:08.436Z,101637.19
2023-08-17T06:58:55.584Z,101639.15
2023-08-17T07:01:49.765Z,101634.88
2023-08-17T07:04:36.628Z,101630.92
2023-08-17T07:07:23.747Z,101628.40
2023-08-17T07:10:15.265Z,101626.14
2023-08-17T07:13:05.217Z,101621.33
2023-08-17T07:15:52.197Z,101620.27
2023-08-17T07:18:39.218Z,101615.02
2023-08-17T07:21:26.982Z,101614.85
2023-08-17T07:24:16.400Z,101610.85
2023-08-17T07:27:03.367Z,101613.94
2023-08-17T07:29:50.153Z,101607.66
2023-08-17T07:32:37.196Z,101606.64
2023-08-17T07:35:24.196Z,101610.13
2023-08-17T07:38:12.215Z,101607.16
2023-08-17T07:41:00.115Z,101608.10
2023-08-17T07:43:47.303Z,101607.03
2023-08-17T07:46:33.956Z,101607.80
2023-08-17T07:49:31.414Z,101607.49
2023-08-17T07:52:20.246Z,101610.77
2023-08-17T07:55:07.521Z,101613.26
2023-08-17T07:57:54.651Z,101616.50
2023-08-17T08:00:41.938Z,101615.66
2023-08-17T08:03:52.339Z,101620.48
2023-08-17T08:06:42.428Z,101621.17
2023-08-17T08:09:28.927Z,101622.56
2023-08-17T08:12:16.052Z,101624.93
2023-08-17T08:15:03.307Z,101622.33
2023-08-17T08:17:54.113Z,101621.88
2023-08-17T08:20:41.040Z,101623.11
2023-08-17T08:23:28.727Z,101627.17
2023-08-17T08:26:15.856Z,101624.36
2023-08-17T08:29:02.931Z,101620.84
2023-08-17T08:35:44.989Z,101617.73
2023-08-17T08:38:33.173Z,101615.55
2023-08-17T08:41:21.074Z,101618.20
2023-08-17T08:44:08.333Z,101618.27
2023-08-17T08:46:58.520Z,101615.83
2023-08-17T08:50:02.791Z,101616.88
2023-08-17T08:53:05.776Z,101613.91
2023-08-17T08:56:00.370Z,101613.36
2023-08-17T08:58:48.555Z,101615.20
2023-08-17T09:01:42.426Z,101612.65
2023-08-17T09:04:46.280Z,101613.31
2023-08-17T09:07:34.582Z,101612.98
2023-08-17T09:10:21.610Z,101613.11
2023-08-17T09:13:09.144Z,101613.05
2023-08-17T09:15:55.822Z,101608.83
2023-08-17T09:18:43.170Z,101608.38
2023-08-17T09:21:33.307Z,101609.39
2023-08-17T09:24:20.215Z,101607.92
2023-08-17T09:27:14.361Z,101610.61
2023-08-17T09:30:07.447Z,101616.08
2023-08-17T09:32:54.511Z,101608.04
2023-08-17T09:35:43.447Z,101609.77
2023-08-17T09:38:30.889Z,101606.55
2023-08-17T09:41:19.186Z,101606.21
2023-08-17T09:44:07.725Z,101605.05
2023-08-17T09:46:59.431Z,101607.22
2023-08-17T09:49:56.247Z,101601.64
2023-08-17T09:52:43.245Z,101599.56
2023-08-17T09:55:35.457Z,101600.63
2023-08-17T09:58:22.218Z,101602.33
2023-08-17T10:01:11.478Z,101601.67
2023-08-17T10:04:00.845Z,101597.88
2023-08-17T10:06:53.487Z,101602.16
2023-08-17T10:09:50.173Z,101601.13
2023-08-17T10:12:44.244Z,101599.34
2023-08-17T10:15:33.747Z,101600.53
2023-08-17T10:19:07.771Z,101604.30
2023-08-17T10:22:07.493Z,101602.73
2023-08-17T10:25:04.949Z,101600.98
2023-08-17T10:31:52.632Z,101591.11
2023-08-17T10:34:40.874Z,101595.89
2023-08-17T10:37:44.528Z,101587.69
2023-08-17T10:40:40.619Z,101592.17
2023-08-17T10:43:35.421Z,101593.79
2023-08-17T10:46:22.842Z,101597.65
2023-08-17T10:49:27.242Z,101597.67
2023-08-17T10:52:27.689Z,101598.64
2023-08-17T10:55:15.273Z,101603.65
2023-08-17T10:58:02.225Z,101606.98
2023-08-17T11:00:56.011Z,101603.89
2023-08-17T11:03:44.635Z,101601.13
2023-08-17T11:06:36.772Z,101603.14
2023-08-17T11:09:23.583Z,101600.65
2023-08-17T11:12:27.181Z,101595.14
2023-08-17T11:15:14.168Z,101599.80
2023-08-17T11:18:01.217Z,101599.88
2023-08-17T11:20:50.052Z,101602.90
2023-08-17T11:23:38.619Z,101602.45
2023-08-17T11:26:26.148Z,101601.45
2023-08-17T11:29:37.125Z,101598.44
2023-08-17T11:36:49.102Z,101590.89
2023-08-17T11:39:36.483Z,101590.81
2023-08-17T11:46:38.522Z,101587.30
2023-08-17T11:54:00.951Z,101584.38
2023-08-17T11:56:47.639Z,101585.98
2023-08-17T11:59:38.105Z,101584.13
2023-08-17T12:02:26.089Z,101579.16
2023-08-17T12:05:21.617Z,101575.26
2023-08-17T12:08:09.157Z,101576.91
2023-08-17T12:11:39.436Z,101574.82
2023-08-17T12:14:48.990Z,101582.27
2023-08-17T12:17:37.445Z,101580.70
2023-08-17T12:20:24.742Z,101579.58
2023-08-17T12:23:14.373Z,101575.77
2023-08-17T12:26:01.490Z,101581.23
2023-08-17T12:28:48.786Z,101581.61
2023-08-17T12:31:36.277Z,101585.30
2023-08-17T12:34:23.600Z,101578.98
2023-08-17T12:37:12.448Z,101574.13
2023-08-17T12:39:59.650Z,101573.05
2023-08-17T12:42:46.396Z,101569.23
2023-08-17T12:45:33.390Z,101566.77
2023-08-17T12:48:20.349Z,101565.09
2023-08-17T12:54:31.203Z,101561.48
2023-08-17T12:57:18.695Z,101563.09
2023-08-17T13:00:06.524Z,101560.23
2023-08-17T13:02:53.540Z,101555.98
2023-08-17T13:05:41.369Z,101561.95
2023-08-17T13:08:29.150Z,101561.12
2023-08-17T13:11:16.062Z,101562.98
2023-08-17T13:14:02.808Z,101562.08
2023-08-17T13:16:53.343Z,101567.80
2023-08-17T13:19:40.710Z,101567.27
2023-08-17T13:22:27.849Z,101572.88
2023-08-17T13:25:18.701Z,101573.29
2023-08-17T13:28:06.102Z,101572.17
2023-08-17T13:30:53.106Z,101573.66
2023-08-17T13:33:39.928Z,101573.39
2023-08-17T13:36:27.027Z,101573.38
2023-08-17T13:39:28.950Z,101568.65
2023-08-17T13:42:15.891Z,101566.86
2023-08-17T13:45:02.936Z,101566.94
2023-08-17T13:47:50.028Z,101561.21
2023-08-17T13:50:40.935Z,101559.12
2023-08-17T13:53:27.618Z,101561.20
2023-08-17T13:56:14.609Z,101557.20
2023-08-17T13:59:07.560Z,101556.92
2023-08-17T14:01:57.057Z,101557.58
2023-08-17T14:04:44.041Z,101559.23
2023-08-17T14:07:30.937Z,101562.50
2023-08-17T14:10:29.233Z,101564.88
2023-08-17T14:13:24.184Z,101563.77
2023-08-17T14:16:11.492Z,101564.69
2023-08-17T14:18:58.605Z,101561.82
2023-08-17T14:21:45.720Z,101564.39
2023-08-17T14:24:32.571Z,101565.92
2023-08-17T14:27:19.466Z,101566.46
2023-08-17T14:30:07.561Z,101565.25
2023-08-17T14:33:00.821Z,101564.14
2023-08-17T14:35:48.596Z,101558.95
2023-08-17T14:38:37.086Z,101554.27
2023-08-17T14:41:23.744Z,101553.61
2023-08-17T14:44:10.904Z,101554.59
2023-08-17T14:50:29.042Z,101561.61
2023-08-17T14:53:16.546Z,101559.55
2023-08-17T14:56:03.493Z,101561.67
2023-08-17T14:58:50.631Z,101557.46
2023-08-17T15:01:37.988Z,101559.14
2023-08-17T15:04:27.840Z,101554.23
2023-08-17T15:07:14.817Z,101551.61
2023-08-17T15:10:01.468Z,101551.70
2023-08-17T15:12:48.312Z,101553.38
2023-08-17T15:15:35.727Z,101551.70
2023-08-17T15:18:23.643Z,101547.21
2023-08-17T15:21:11.858Z,101544.23
2023-08-17T15:24:00.627Z,101536.73
2023-08-17T15:26:47.851Z,101534.98
2023-08-17T15:29:34.750Z,101536.20
2023-08-17T15:32:21.594Z,101535.22
2023-08-17T15:35:10.934Z,101534.08
2023-08-17T15:38:01.581Z,101529.56
2023-08-17T15:41:12.922Z,101528.13
2023-08-17T15:44:00.764Z,101529.45
2023-08-17T15:46:47.901Z,101528.86
2023-08-17T15:49:34.631Z,101531.88
2023-08-17T15:52:21.532Z,101531.46
2023-08-17T15:55:08.548Z,101531.35
2023-08-17T15:57:55.527Z,101529.09
2023-08-17T16:00:42.545Z,101532.38
2023-08-17T16:03:29.400Z,101530.65
2023-08-17T16:06:16.258Z,101534.87
2023-08-17T16:09:03.402Z,101535.90
2023-08-17T16:11:50.137Z,101535.00
2023-08-17T16:14:36.842Z,101538.77
2023-08-17T16:17:23.815Z,101537.38
2023-08-17T16:20:11.878Z,101538.06
2023-08-17T16:22:58.929Z,101536.99
2023-08-17T16:25:45.840Z,101537.21
2023-08-17T16:28:32.772Z,101538.27
2023-08-17T16:31:19.771Z,101537.22
2023-08-17T16:34:06.733Z,101538.44
2023-08-17T16:36:53.699Z,101538.58
2023-08-17T16:39:40.690Z,101538.70
2023-08-17T16:42:27.606Z,101539.25
2023-08-17T16:45:16.317Z,101537.80
2023-08-17T16:48:04.566Z,101540.58
2023-08-17T16:50:51.478Z,101540.06
2023-08-17T16:53:43.883Z,101543.00
2023-08-17T16:56:31.185Z,101540.46
2023-08-17T16:59:18.254Z,101538.88
2023-08-17T17:02:05.322Z,101540.52
2023-08-17T17:04:52.095Z,101541.80
2023-08-17T17:07:38.810Z,101541.23
2023-08-17T17:10:26.096Z,101541.07
2023-08-17T17:13:12.804Z,101540.33
2023-08-17T17:15:59.567Z,101543.30
2023-08-17T17:18:48.263Z,101542.70
2023-08-17T17:21:35.120Z,101545.77
2023-08-17T17:24:21.780Z,101548.27
2023-08-17T17:27:10.832Z,101545.21
2023-08-17T17:29:58.270Z,101545.40
2023-08-17T17:32:45.429Z,101546.52
2023-08-17T17:35:32.565Z,101550.52
2023-08-17T17:38:20.860Z,101552.11
2023-08-17T17:41:08.789Z,101552.64
2023-08-17T17:43:55.722Z,101551.73
2023-08-17T17:46:42.615Z,101552.83
2023-08-17T17:49:32.346Z,101553.55
2023-08-17T17:52:21.772Z,101558.63
2023-08-17T17:55:19.365Z,101568.23
2023-08-17T17:58:07.496Z,101569.34
2023-08-17T18:00:54.880Z,101576.55
2023-08-17T18:03:43.512Z,101575.30
2023-08-17T18:06:30.811Z,101580.68
2023-08-17T18:09:17.961Z,101586.65
2023-08-17T18:12:05.098Z,101586.04
2023-08-17T18:14:51.733Z,101588.33
2023-08-17T18:17:38.733Z,101589.45
2023-08-17T18:20:25.726Z,101591.42
2023-08-17T18:23:12.990Z,101592.04
2023-08-17T18:25:59.756Z,101594.33
2023-08-17T18:28:46.679Z,101589.13
2023-08-17T18:31:34.085Z,101586.34
2023-08-17T18:34:21.307Z,101585.64
2023-08-17T18:37:08.556Z,101586.25
2023-08-17T18:39:57.007Z,101584.67
2023-08-17T18:42:43.851Z,101586.31
2023-08-17T18:45:30.531Z,101586.61
2023-08-17T18:48:19.209Z,101588.96
2023-08-17T18:51:06.153Z,101591.74
2023-08-17T18:53:53.095Z,101593.30
2023-08-17T18:56:40.308Z,101592.23
2023-08-17T18:59:27.930Z,101588.95
2023-08-17T19:02:14.940Z,101587.33
2023-08-17T19:05:03.683Z,101590.45
2023-08-17T19:07:50.991Z,101591.64
2023-08-17T19:10:37.876Z,101586.27
2023-08-17T19:13:24.944Z,101588.42
2023-08-17T19:16:12.207Z,101582.58
2023-08-17T19:18:58.999Z,101585.45
2023-08-17T19:21:46.624Z,101579.15
2023-08-17T19:24:33.984Z,101579.07
2023-08-17T19:27:21.137Z,101574.51
2023-08-17T19:30:11.458Z,101572.98
2023-08-17T19:33:00.502Z,101570.98
2023-08-17T19:35:48.678Z,101571.05
2023-08-17T19:38:35.948Z,101569.48
2023-08-17T19:41:23.041Z,101572.79
2023-08-17T19:44:09.705Z,101575.89
2023-08-17T19:46:56.492Z,101575.50
2023-08-17T19:49:43.342Z,101576.68
2023-08-17T19:52:30.648Z,101578.64
2023-08-17T19:55:17.685Z,101576.83
2023-08-17T19:58:05.752Z,101572.27
2023-08-17T20:00:54.400Z,101573.36
2023-08-17T20:03:41.693Z,101576.88
2023-08-17T20:06:29.355Z,101577.39
2023-08-17T20:09:16.241Z,101576.86
2023-08-17T20:12:03.116Z,101574.61
2023-08-17T20:14:50.028Z,101576.23
2023-08-17T20:17:36.929Z,101577.45
2023-08-17T20:20:23.849Z,101576.70
2023-08-17T20:23:10.766Z,101575.53
2023-08-17T20:25:57.900Z,101572.84
2023-08-17T20:28:44.571Z,101576.86
2023-08-17T20:31:31.587Z,101575.66
2023-08-17T20:34:18.524Z,101576.88
2023-08-17T20:37:05.338Z,101575.54
2023-08-17T20:39:53.445Z,101576.67
2023-08-17T20:42:41.887Z,101576.65
2023-08-17T20:45:28.711Z,101575.91
2023-08-17T20:48:15.597Z,101579.73
2023-08-17T20:51:03.126Z,101576.80
2023-08-17T20:53:49.957Z,101576.27
2023-08-17T20:56:36.618Z,101575.06
2023-08-17T20:59:23.713Z,101580.45
2023-08-17T21:02:10.721Z,101576.08
2023-08-17T21:04:57.604Z,101578.23
2023-08-17T21:07:44.610Z,101574.16
2023-08-17T21:10:32.380Z,101573.14
2023-08-17T21:13:19.060Z,101573.80
2023-08-17T21:16:07.809Z,101574.31
2023-08-17T21:19:00.378Z,101577.54
2023-08-17T21:21:47.939Z,101565.45
2023-08-17T21:24:34.971Z,101564.16
2023-08-17T21:27:21.789Z,101569.95
2023-08-17T21:30:09.021Z,101572.77
2023-08-17T21:32:56.810Z,101569.83
2023-08-17T21:35:43.730Z,101565.43
2023-08-17T21:38:30.448Z,101560.49
2023-08-17T21:41:17.566Z,101558.68
2023-08-17T21:44:04.473Z,101558.48
2023-08-17T21:46:51.358Z,101562.25
2023-08-17T21:49:38.284Z,101558.48
2023-08-17T21:52:25.031Z,101561.88
2023-08-17T21:55:12.337Z,101561.59
2023-08-17T21:57:59.414Z,101563.98
2023-08-17T22:00:48.038Z,101566.70
2023-08-17T22:03:35.078Z,101560.67
2023-08-17T22:06:22.610Z,101563.92
2023-08-17T22:09:09.817Z,101568.54
2023-08-17T22:11:57.311Z,101573.34
2023-08-17T22:14:44.255Z,101583.63
2023-08-17T22:17:31.726Z,101586.49
2023-08-17T22:20:19.436Z,101589.73
2023-08-17T22:23:07.196Z,101593.02
2023-08-17T22:25:53.991Z,101590.89
2023-08-17T22:28:40.946Z,101590.30
2023-08-17T22:31:27.670Z,101590.98
2023-08-17T22:34:14.535Z,101586.16
2023-08-17T22:37:01.521Z,101585.96
2023-08-17T22:39:49.210Z,101582.54
2023-08-17T22:42:36.732Z,101580.02
2023-08-17T22:45:23.873Z,101579.72
2023-08-17T22:48:10.431Z,101584.30
2023-08-17T22:50:57.391Z,101584.86
2023-08-17T22:53:44.565Z,101586.41
2023-08-17T22:56:31.347Z,101584.54
2023-08-17T22:59:18.267Z,101583.96
2023-08-17T23:02:07.944Z,101586.12
2023-08-17T23:04:55.373Z,101584.76
2023-08-17T23:07:42.311Z,101584.58
2023-08-17T23:10:29.461Z,101584.81
2023-08-17T23:13:16.506Z,101588.84
2023-08-17T23:16:04.484Z,101587.27
2023-08-17T23:18:51.162Z,101587.01
2023-08-17T23:21:38.156Z,101587.32
2023-08-17T23:24:25.148Z,101585.35
2023-08-17T23:27:11.940Z,101585.33
2023-08-17T23:29:58.903Z,101583.19
2023-08-17T23:32:45.741Z,101583.93
2023-08-17T23:35:34.395Z,101585.30
2023-08-17T23:38:21.846Z,101584.23
2023-08-17T23:41:08.566Z,101583.10
2023-08-17T23:43:55.771Z,101584.20
2023-08-17T23:46:42.445Z,101587.21
2023-08-17T23:49:29.982Z,101589.21
2023-08-17T23:52:16.850Z,101591.16
2023-08-17T23:55:04.947Z,101590.05
2023-08-17T23:57:51.621Z,101588.88
